Time;durP1;ratioP1;P1;durP2;ratioP2;P2;SDS_P1;SDS_P2;PMS_P1;PMS_P2;Temp;Humidity;BMP_temperature;BMP_pressure;BME280_temperature;BME280_humidity;BME280_pressure;Samples;Min_cycle;Max_cycle;Signal;HPM_P1;HPM_P2
2022/09/26 00:00:44;;;;;;;0.98;0.50;;;;;;;9.72;87.50;100527.09;5074856;28;20043;-78
2022/09/26 00:03:10;;;;;;;1.35;0.60;;;;;;;9.75;87.26;100522.88;5049429;28;20043;-78
2022/09/26 00:05:36;;;;;;;1.13;0.65;;;;;;;9.73;87.64;100520.41;5059085;28;20058;-78
2022/09/26 00:08:02;;;;;;;3.47;0.80;;;;;;;9.74;87.28;100526.78;5059560;28;20032;-78
2022/09/26 00:10:27;;;;;;;1.55;0.65;;;;;;;9.72;87.22;100513.22;5062876;28;20035;-78
2022/09/26 00:12:54;;;;;;;2.42;0.82;;;;;;;9.76;87.23;100519.03;5041196;28;20035;-78
2022/09/26 00:15:19;;;;;;;2.35;0.70;;;;;;;9.75;87.44;100509.03;5086330;28;20032;-78
2022/09/26 00:17:45;;;;;;;1.80;0.77;;;;;;;9.77;87.48;100504.03;5064317;28;20430;-78
2022/09/26 00:20:10;;;;;;;2.38;1.00;;;;;;;9.72;87.50;100504.06;5063211;28;20032;-78
2022/09/26 00:22:36;;;;;;;1.40;0.80;;;;;;;9.73;87.67;100501.00;5090853;28;20396;-78
2022/09/26 00:25:01;;;;;;;3.35;0.90;;;;;;;9.74;87.73;100508.19;5059589;28;20020;-78
2022/09/26 00:27:27;;;;;;;1.60;0.80;;;;;;;9.72;87.86;100507.69;5061331;28;20032;-78
2022/09/26 00:29:52;;;;;;;1.10;0.80;;;;;;;9.71;87.90;100505.19;5074644;28;20036;-78
2022/09/26 00:32:18;;;;;;;1.23;0.70;;;;;;;9.71;88.00;100492.13;5078782;28;20029;-78
2022/09/26 00:34:43;;;;;;;1.75;0.70;;;;;;;9.72;87.72;100496.59;5041280;28;20110;-78
2022/09/26 00:37:09;;;;;;;2.65;0.75;;;;;;;9.69;88.24;100482.44;5044301;28;20031;-78
2022/09/26 00:39:34;;;;;;;1.55;0.68;;;;;;;9.70;88.02;100484.94;5029838;28;20086;-78
2022/09/26 00:42:00;;;;;;;1.77;0.77;;;;;;;9.72;87.75;100482.72;5072042;28;20055;-78
2022/09/26 00:44:42;;;;;;;2.47;0.77;;;;;;;9.70;87.87;100473.03;5058809;28;20031;-78
2022/09/26 00:47:42;;;;;;;3.00;1.33;;;;;;;9.71;87.98;100474.69;5066543;28;20036;-78
2022/09/26 00:50:15;;;;;;;3.75;1.02;;;;;;;9.69;88.06;100471.34;5028335;28;20036;-78
2022/09/26 00:52:53;;;;;;;2.53;0.80;;;;;;;9.66;88.12;100466.41;5056697;28;20107;-78
2022/09/26 00:55:21;;;;;;;1.48;0.70;;;;;;;9.67;88.10;100468.91;5071350;28;20587;-78
2022/09/26 00:57:52;;;;;;;3.97;0.75;;;;;;;9.65;88.14;100475.84;5063550;28;20039;-78
2022/09/26 01:00:17;;;;;;;3.00;0.70;;;;;;;9.65;88.36;100470.28;5062027;28;20047;-78
2022/09/26 01:02:43;;;;;;;1.35;0.73;;;;;;;9.67;88.23;100476.34;5059805;28;20037;-78
2022/09/26 01:05:09;;;;;;;1.83;0.80;;;;;;;9.67;88.68;100468.03;5055752;28;20028;-78
2022/09/26 01:07:35;;;;;;;1.60;0.70;;;;;;;9.63;88.54;100468.63;5040832;28;20064;-78
2022/09/26 01:10:03;;;;;;;1.92;0.70;;;;;;;9.62;88.97;100466.97;5043827;28;20035;-78
2022/09/26 01:12:28;;;;;;;4.43;0.82;;;;;;;9.65;88.82;100475.84;5061193;28;20384;-78
2022/09/26 01:14:54;;;;;;;1.63;0.70;;;;;;;9.67;88.37;100468.91;5060094;28;20032;-77
2022/09/26 01:17:21;;;;;;;2.70;0.80;;;;;;;9.65;88.82;100470.28;5026505;28;20029;-78
2022/09/26 01:19:59;;;;;;;2.60;0.80;;;;;;;9.68;89.04;100466.94;5043453;28;20389;-77
2022/09/26 01:22:46;;;;;;;3.97;0.90;;;;;;;9.69;89.16;100466.63;5073303;28;20102;-78
2022/09/26 01:25:31;;;;;;;2.97;1.10;;;;;;;9.69;89.44;100454.72;5059616;28;20490;-78
2022/09/26 01:28:44;;;;;;;2.70;1.08;;;;;;;9.71;89.33;100458.88;5085635;28;20086;-78
2022/09/26 01:31:31;;;;;;;3.08;0.88;;;;;;;9.71;89.21;100452.50;5038825;28;20026;-77
2022/09/26 01:34:10;;;;;;;2.15;0.60;;;;;;;9.70;89.40;100451.66;5068952;28;20067;-77
2022/09/26 01:36:43;;;;;;;3.63;1.00;;;;;;;9.71;89.47;100455.28;5059689;28;20060;-77
2022/09/26 01:39:19;;;;;;;3.50;0.88;;;;;;;9.72;89.45;100451.38;5017991;28;20081;-78
2022/09/26 01:42:10;;;;;;;2.17;0.98;;;;;;;9.75;89.64;100439.69;5091125;28;20031;-78
2022/09/26 01:45:10;;;;;;;2.58;0.90;;;;;;;9.74;89.51;100438.03;5074984;28;20024;-78
2022/09/26 01:48:06;;;;;;;3.30;1.15;;;;;;;9.76;89.55;100433.03;5064808;28;20041;-78
2022/09/26 01:50:42;;;;;;;3.60;1.05;;;;;;;9.77;89.80;100418.03;5050625;28;20047;-78
2022/09/26 01:53:46;;;;;;;1.83;0.98;;;;;;;9.78;89.85;100411.41;5061803;28;20028;-79
2022/09/26 01:56:13;;;;;;;4.43;1.17;;;;;;;9.80;89.48;100398.06;5032094;28;20512;-78
2022/09/26 01:59:04;;;;;;;5.60;1.10;;;;;;;9.77;89.60;100384.75;5061768;28;20037;-78
2022/09/26 02:01:31;;;;;;;5.10;1.20;;;;;;;9.80;89.71;100387.78;5061575;28;20041;-77
2022/09/26 02:04:09;;;;;;;1.98;0.80;;;;;;;9.80;89.97;100378.63;5027770;28;20074;-78
2022/09/26 02:06:51;;;;;;;4.00;1.00;;;;;;;9.81;89.77;100388.63;5059235;28;20036;-78
2022/09/26 02:09:20;;;;;;;1.67;0.80;;;;;;;9.81;89.67;100380.31;5056049;28;20392;-77
2022/09/26 02:11:47;;;;;;;2.05;0.98;;;;;;;9.82;89.43;100376.41;5055068;28;20028;-78
2022/09/26 02:14:20;;;;;;;1.10;1.00;;;;;;;9.80;89.65;100368.38;5023867;28;20525;-77
2022/09/26 02:16:46;;;;;;;;;;;;;;;9.80;89.57;100356.44;5057204;28;20035;-78
2022/09/26 02:19:20;;;;;;;3.55;1.05;;;;;;;9.84;89.96;100351.97;5055398;28;19908;-78
2022/09/26 02:21:45;;;;;;;2.00;0.80;;;;;;;9.81;89.87;100347.03;5090434;28;20035;-77
2022/09/26 02:24:11;;;;;;;2.42;0.95;;;;;;;9.79;90.21;100338.97;5047156;28;20028;-78
2022/09/26 02:26:37;;;;;;;3.65;1.10;;;;;;;9.81;89.78;100333.16;5060122;28;20029;-78
2022/09/26 02:29:02;;;;;;;3.72;0.95;;;;;;;9.79;89.80;100332.63;5058735;28;20684;-78
2022/09/26 02:31:30;;;;;;;2.33;1.10;;;;;;;9.80;89.86;100323.97;5038145;28;20040;-78
2022/09/26 02:33:56;;;;;;;1.23;0.88;;;;;;;9.79;89.69;100316.78;5045457;28;20040;-78
2022/09/26 02:36:21;;;;;;;2.85;1.20;;;;;;;9.78;89.76;100311.56;5063754;28;20032;-78
2022/09/26 02:38:47;;;;;;;3.35;1.10;;;;;;;9.79;89.97;100299.34;5047177;28;20028;-78
2022/09/26 02:41:17;;;;;;;4.30;1.00;;;;;;;9.79;90.14;100310.44;5058579;28;20431;-78
2022/09/26 02:44:14;;;;;;;2.90;0.80;;;;;;;9.76;89.98;100305.47;5058872;28;20037;-78
2022/09/26 02:47:18;;;;;;;2.08;0.90;;;;;;;9.72;90.07;100294.16;5054594;28;20029;-78
2022/09/26 02:49:58;;;;;;;2.78;1.23;;;;;;;9.75;90.47;100298.25;5062119;28;20020;-78
2022/09/26 02:52:30;;;;;;;1.50;0.88;;;;;;;9.72;90.01;100282.19;5076399;28;20056;-78
2022/09/26 02:55:27;;;;;;;2.10;1.00;;;;;;;9.73;89.84;100284.69;5085015;28;20028;-78
2022/09/26 02:58:04;;;;;;;3.78;1.00;;;;;;;9.72;89.92;100287.75;5050602;28;20163;-78
2022/09/26 03:00:38;;;;;;;2.55;1.05;;;;;;;9.69;90.25;100280.84;5047873;28;20036;-79
2022/09/26 03:03:46;;;;;;;6.68;1.10;;;;;;;9.70;90.34;100276.16;5061279;28;20048;-78
2022/09/26 03:06:14;;;;;;;3.45;1.20;;;;;;;9.67;90.32;100279.47;5034266;28;20037;-78
2022/09/26 03:08:42;;;;;;;1.70;1.00;;;;;;;9.70;90.51;100270.59;5017337;28;20048;-78
2022/09/26 03:11:09;;;;;;;2.78;1.10;;;;;;;9.68;90.21;100276.44;5000726;28;20410;-78
2022/09/26 03:13:37;;;;;;;3.60;1.40;;;;;;;9.65;90.63;100276.19;5001343;28;20045;-77
2022/09/26 03:16:03;;;;;;;3.83;1.00;;;;;;;9.66;91.06;100275.88;5017654;28;20037;-78
2022/09/26 03:18:34;;;;;;;2.22;1.10;;;;;;;9.62;90.74;100277.59;5000039;28;20171;-77
2022/09/26 03:20:59;;;;;;;2.72;1.00;;;;;;;9.62;91.02;100267.34;5013925;28;20553;-78
2022/09/26 03:23:25;;;;;;;4.10;0.80;;;;;;;9.61;90.75;100267.63;5008314;28;20032;-78
2022/09/26 03:26:12;;;;;;;3.50;1.02;;;;;;;9.65;90.57;100267.88;5017215;28;20029;-78
2022/09/26 03:28:38;;;;;;;2.15;1.10;;;;;;;9.63;90.79;100268.97;5017110;28;20037;-77
2022/09/26 03:31:03;;;;;;;2.70;1.00;;;;;;;9.69;90.80;100255.06;5017312;28;20189;-78
2022/09/26 03:33:29;;;;;;;4.10;1.25;;;;;;;9.64;90.56;100258.75;5016590;28;20048;-78
2022/09/26 03:35:54;;;;;;;1.65;0.93;;;;;;;9.62;90.81;100256.25;5000605;28;20034;-77
2022/09/26 03:38:20;;;;;;;4.20;0.90;;;;;;;9.63;90.79;100248.75;5033572;28;20107;-78
2022/09/26 03:40:45;;;;;;;2.25;1.00;;;;;;;9.65;90.73;100238.19;5045435;28;20040;-78
2022/09/26 03:43:11;;;;;;;2.45;1.00;;;;;;;9.62;91.00;100242.38;5057839;28;20028;-78
2022/09/26 03:45:37;;;;;;;4.30;1.00;;;;;;;9.60;90.77;100244.63;5058065;28;20104;-78
2022/09/26 03:48:02;;;;;;;4.05;0.90;;;;;;;9.60;90.62;100243.78;5060639;28;20024;-78
2022/09/26 03:50:28;;;;;;;3.10;0.95;;;;;;;9.61;90.73;100228.81;5058336;28;20071;-77
2022/09/26 03:52:53;;;;;;;3.35;1.10;;;;;;;9.58;90.73;100224.69;5057713;28;20077;-78
2022/09/26 03:55:19;;;;;;;2.20;0.80;;;;;;;9.59;90.86;100220.78;5067703;28;20035;-78
2022/09/26 03:57:44;;;;;;;3.28;0.98;;;;;;;9.56;90.71;100221.38;5061348;28;20033;-78
2022/09/26 04:00:10;;;;;;;1.42;0.88;;;;;;;9.55;90.66;100211.41;5061022;28;20036;-78
2022/09/26 04:02:36;;;;;;;2.25;0.93;;;;;;;9.57;91.06;100206.38;5060262;28;20048;-78
2022/09/26 04:05:01;;;;;;;3.35;0.95;;;;;;;9.54;91.06;100198.66;5067074;28;20028;-78
2022/09/26 04:07:27;;;;;;;1.40;0.85;;;;;;;9.55;90.84;100196.72;5057305;28;20031;-78
2022/09/26 04:09:52;;;;;;;3.42;0.90;;;;;;;9.52;91.28;100195.34;5059158;28;20024;-78
2022/09/26 04:12:21;;;;;;;3.33;0.82;;;;;;;9.54;91.31;100181.22;5074747;28;20059;-78
2022/09/26 04:14:46;;;;;;;4.00;1.30;;;;;;;9.51;91.23;100171.53;5051662;28;20033;-77
2022/09/26 04:17:12;;;;;;;3.55;1.40;;;;;;;9.51;91.57;100165.19;5095759;28;20032;-78
2022/09/26 04:19:37;;;;;;;3.22;1.08;;;;;;;9.49;91.53;100151.59;5071479;28;20036;-78
2022/09/26 04:22:03;;;;;;;1.75;0.80;;;;;;;9.49;91.47;100156.31;5044862;28;20028;-77
2022/09/26 04:24:29;;;;;;;1.80;0.93;;;;;;;9.50;91.68;100153.25;5054658;28;20024;-78
2022/09/26 04:26:54;;;;;;;2.30;0.80;;;;;;;9.48;91.42;100149.97;5076816;28;20025;-78
2022/09/26 04:29:20;;;;;;;4.28;0.95;;;;;;;9.47;91.51;100140.00;5051330;28;20035;-78
2022/09/26 04:31:45;;;;;;;4.32;1.00;;;;;;;9.49;91.87;100139.69;5061103;28;20033;-78
2022/09/26 04:34:11;;;;;;;2.17;0.90;;;;;;;9.47;92.09;100133.59;5044180;28;20466;-78
2022/09/26 04:36:37;;;;;;;1.90;1.10;;;;;;;9.48;92.02;100127.78;5057368;28;20038;-78
2022/09/26 04:39:02;;;;;;;1.90;0.90;;;;;;;9.50;91.75;100124.69;5054695;28;20089;-78
2022/09/26 04:41:28;;;;;;;1.77;0.90;;;;;;;9.48;91.80;100122.22;5063877;28;20029;-77
2022/09/26 04:43:54;;;;;;;2.70;0.95;;;;;;;9.50;91.67;100114.47;5044784;28;20158;-78
2022/09/26 04:46:21;;;;;;;5.88;1.10;;;;;;;9.48;91.94;100121.41;5079717;28;20473;-78
2022/09/26 04:48:50;;;;;;;4.35;1.00;;;;;;;9.47;92.03;100122.53;5068417;28;20670;-77
2022/09/26 04:51:16;;;;;;;2.83;1.00;;;;;;;9.48;91.80;100113.09;5047889;28;20032;-78
2022/09/26 04:53:42;;;;;;;1.67;0.98;;;;;;;9.49;91.84;100093.38;5064109;28;20024;-78
2022/09/26 04:56:09;;;;;;;2.30;0.90;;;;;;;9.50;91.91;100085.88;5080483;28;20036;-78
2022/09/26 04:58:36;;;;;;;2.35;1.00;;;;;;;9.55;91.61;100071.97;5047112;28;20052;-77
2022/09/26 05:01:03;;;;;;;2.67;1.02;;;;;;;9.49;91.74;100071.22;5047089;28;20067;-79
2022/09/26 05:03:29;;;;;;;1.80;1.27;;;;;;;9.49;92.15;100068.44;5059137;28;20032;-77
2022/09/26 05:05:54;;;;;;;1.80;0.93;;;;;;;9.51;92.21;100070.94;5093071;28;20545;-78
2022/09/26 05:08:21;;;;;;;3.78;1.10;;;;;;;9.51;92.67;100070.94;5050570;28;20067;-78
2022/09/26 05:10:51;;;;;;;1.80;1.02;;;;;;;9.55;92.17;100074.75;5060950;28;20059;-78
2022/09/26 05:13:16;;;;;;;2.28;1.00;;;;;;;9.52;92.28;100080.88;5087163;28;20028;-77
2022/09/26 05:15:42;;;;;;;1.70;0.93;;;;;;;9.53;92.48;100080.59;5078108;28;20477;-77
2022/09/26 05:18:10;;;;;;;1.80;0.90;;;;;;;9.56;92.62;100085.53;5077473;28;20025;-78
2022/09/26 05:20:36;;;;;;;3.55;0.90;;;;;;;9.54;92.74;100079.47;5091346;28;20406;-77
2022/09/26 05:23:02;;;;;;;4.53;1.17;;;;;;;9.55;92.51;100083.88;5059787;28;20028;-78
2022/09/26 05:28:12;;;;;;;3.08;1.30;;;;;;;9.54;92.75;100067.56;5063616;28;20100;-74
2022/09/26 05:30:38;;;;;;;1.35;0.90;;;;;;;9.60;92.77;100069.13;5060017;28;20086;-74
2022/09/26 05:33:04;;;;;;;1.88;0.82;;;;;;;9.57;92.55;100067.78;5028780;28;20025;-75
2022/09/26 05:35:33;;;;;;;2.40;0.90;;;;;;;9.56;92.71;100057.00;5059938;28;20032;-78
2022/09/26 05:38:00;;;;;;;3.80;1.27;;;;;;;9.60;92.48;100053.31;5013284;28;20024;-78
2022/09/26 05:43:13;;;;;;;2.85;1.08;;;;;;;9.62;92.79;100044.72;5090983;28;20024;-78
2022/09/26 05:45:38;;;;;;;3.67;1.30;;;;;;;9.59;92.56;100043.34;5066435;28;20721;-78
2022/09/26 05:48:04;;;;;;;2.35;1.05;;;;;;;9.58;93.07;100033.41;5049169;28;20025;-77
2022/09/26 05:50:30;;;;;;;5.38;1.10;;;;;;;9.60;93.04;100041.41;5079302;28;20387;-78
2022/09/26 05:52:57;;;;;;;4.25;0.90;;;;;;;9.59;93.00;100029.50;5061864;28;20020;-78
2022/09/26 05:55:23;;;;;;;2.83;0.85;;;;;;;9.59;92.95;100035.03;5053213;28;20039;-78
2022/09/26 05:57:57;;;;;;;3.72;1.30;;;;;;;9.60;93.36;100024.78;5045522;28;20028;-78
2022/09/26 06:00:26;;;;;;;3.05;1.08;;;;;;;9.61;93.27;100020.84;5051190;28;20041;-78
2022/09/26 06:02:58;;;;;;;5.50;1.10;;;;;;;9.62;93.50;100016.97;5009826;28;20049;-78
2022/09/26 06:05:24;;;;;;;4.40;0.98;;;;;;;9.65;93.36;100010.84;5055986;28;20017;-78
2022/09/26 06:07:50;;;;;;;1.75;1.02;;;;;;;9.63;93.59;100005.56;5042744;28;20032;-78
2022/09/26 06:10:16;;;;;;;3.08;1.23;;;;;;;9.64;93.46;99989.78;5059045;28;20039;-78
2022/09/26 06:12:41;;;;;;;3.47;1.13;;;;;;;9.63;93.66;99980.63;5049543;28;20388;-78
2022/09/26 06:15:10;;;;;;;3.17;1.20;;;;;;;9.67;94.19;99983.63;5065706;28;20028;-78
2022/09/26 06:17:35;;;;;;;3.72;1.20;;;;;;;9.72;94.27;99983.56;5033700;28;20142;-78
2022/09/26 06:20:02;;;;;;;5.00;0.93;;;;;;;9.71;94.45;99964.44;5059621;28;20033;-76
2022/09/26 06:22:35;;;;;;;4.93;1.38;;;;;;;9.71;94.38;99964.44;5071454;28;20443;-78
2022/09/26 06:25:01;;;;;;;3.45;1.08;;;;;;;9.75;94.29;99944.13;5057392;28;20028;-79
2022/09/26 06:27:26;;;;;;;2.03;0.95;;;;;;;9.77;95.27;99946.59;5090424;28;20032;-77
2022/09/26 06:29:52;;;;;;;4.15;0.95;;;;;;;9.79;95.18;99947.13;5081653;28;20036;-78
2022/09/26 06:32:17;;;;;;;3.45;1.10;;;;;;;9.83;95.31;99937.06;5076048;28;20032;-78
2022/09/26 06:34:42;;;;;;;2.95;1.05;;;;;;;9.87;94.96;99931.75;5056064;28;20038;-78
2022/09/26 06:37:08;;;;;;;3.47;1.20;;;;;;;9.89;95.13;99926.69;5058794;28;20381;-78
2022/09/26 06:39:36;;;;;;;4.78;1.83;;;;;;;9.88;96.47;99919.50;5058371;28;20036;-77
2022/09/26 06:42:06;;;;;;;5.72;1.40;;;;;;;9.91;95.32;99900.31;5069800;28;20039;-78
2022/09/26 06:44:32;;;;;;;5.63;1.95;;;;;;;9.94;95.96;99907.19;5048939;28;20054;-78
2022/09/26 06:46:59;;;;;;;4.60;1.38;;;;;;;9.98;95.63;99900.75;5032967;28;20081;-77
2022/09/26 06:49:26;;;;;;;3.40;1.15;;;;;;;10.02;95.52;99903.72;5058462;28;20032;-78
2022/09/26 06:51:51;;;;;;;5.85;1.42;;;;;;;10.04;95.65;99901.47;5042064;28;20028;-78
2022/09/26 06:54:17;;;;;;;5.68;1.33;;;;;;;10.07;95.89;99895.31;5054629;28;20566;-77
2022/09/26 06:56:42;;;;;;;4.28;1.45;;;;;;;10.11;96.46;99889.97;5058602;28;20600;-78
2022/09/26 06:59:08;;;;;;;4.45;1.45;;;;;;;10.15;96.02;99891.84;5076593;28;20032;-78
2022/09/26 07:01:33;;;;;;;4.43;1.20;;;;;;;10.18;95.68;99888.44;5028477;28;20044;-78
2022/09/26 07:03:59;;;;;;;4.72;1.48;;;;;;;10.21;97.33;99890.59;5059574;28;20024;-78
2022/09/26 07:06:25;;;;;;;4.30;1.30;;;;;;;10.24;96.76;99890.00;5045645;28;20024;-78
2022/09/26 07:08:51;;;;;;;3.47;1.70;;;;;;;10.27;96.73;99885.81;5058554;28;20036;-78
2022/09/26 07:11:17;;;;;;;4.72;1.48;;;;;;;10.31;96.37;99878.53;5045818;28;20047;-77
2022/09/26 07:13:43;;;;;;;3.85;1.52;;;;;;;10.34;96.42;99883.47;5072730;28;20039;-78
2022/09/26 07:16:09;;;;;;;4.72;1.60;;;;;;;10.35;95.98;99879.53;5055293;28;20036;-77
2022/09/26 07:18:36;;;;;;;2.88;1.20;;;;;;;10.42;95.52;99879.97;5037941;28;20028;-78
2022/09/26 07:21:06;;;;;;;2.72;1.05;;;;;;;10.44;96.01;99861.03;5066513;28;20028;-78
2022/09/26 07:23:32;;;;;;;5.65;1.45;;;;;;;10.47;97.68;99866.00;5031539;28;20031;-78
2022/09/26 07:25:58;;;;;;;3.58;1.30;;;;;;;10.49;96.82;99855.38;5058109;28;20512;-77
2022/09/26 07:28:24;;;;;;;4.47;1.65;;;;;;;10.55;97.17;99855.28;5041659;28;20229;-78
2022/09/26 07:30:50;;;;;;;4.47;1.10;;;;;;;10.58;97.73;99851.88;5041717;28;20480;-77
2022/09/26 07:33:15;;;;;;;4.95;1.60;;;;;;;10.63;97.76;99849.00;5059268;28;20051;-77
2022/09/26 07:35:43;;;;;;;3.45;1.45;;;;;;;10.66;96.52;99848.38;5052236;28;20037;-78
2022/09/26 07:38:08;;;;;;;2.65;1.10;;;;;;;10.72;97.02;99844.34;5059519;28;20720;-78
2022/09/26 07:40:34;;;;;;;6.60;1.45;;;;;;;10.76;96.88;99839.81;5026766;28;20028;-77
2022/09/26 07:43:00;;;;;;;3.88;1.10;;;;;;;10.82;96.29;99835.78;5027748;28;20032;-77
2022/09/26 07:50:57;;;;;;;6.53;1.58;;;;;;;11.05;100.00;99821.94;5064625;28;20035;-78
2022/09/26 07:53:24;;;;;;;3.35;1.30;;;;;;;11.13;99.01;99821.19;5062340;28;20085;-78
2022/09/26 07:56:05;;;;;;;4.32;1.40;;;;;;;11.22;98.45;99816.50;5047609;28;20533;-78
2022/09/26 07:58:41;;;;;;;2.78;1.50;;;;;;;11.34;98.90;99813.19;5064062;28;20111;-77
2022/09/26 08:01:10;;;;;;;3.78;1.20;;;;;;;11.45;99.52;99810.94;5079380;28;20040;-77
2022/09/26 08:03:40;;;;;;;3.90;1.20;;;;;;;11.54;98.99;99798.75;5029086;28;20028;-77
2022/09/26 08:06:06;;;;;;;2.53;0.93;;;;;;;11.65;96.67;99792.94;5058095;28;20725;-78
2022/09/26 08:08:32;;;;;;;4.25;1.45;;;;;;;11.75;98.09;99790.69;5037178;28;20028;-77
2022/09/26 08:10:57;;;;;;;5.13;1.20;;;;;;;11.84;97.30;99791.56;5074782;28;20393;-77
2022/09/26 08:13:24;;;;;;;3.58;1.40;;;;;;;11.94;95.91;99792.44;5062518;28;20041;-77
2022/09/26 08:15:50;;;;;;;7.05;1.23;;;;;;;12.03;95.03;99777.41;5061413;28;20036;-77
2022/09/26 08:18:16;;;;;;;6.93;1.48;;;;;;;12.12;96.73;99779.41;5067637;28;20033;-77
2022/09/26 08:20:46;;;;;;;4.72;1.40;;;;;;;12.20;97.93;99776.69;5063873;28;20031;-77
2022/09/26 08:23:13;;;;;;;5.45;1.48;;;;;;;12.29;98.03;99780.31;5068975;28;20056;-77
2022/09/26 08:25:39;;;;;;;5.28;1.52;;;;;;;12.37;96.87;99775.06;5028110;28;20082;-77
2022/09/26 08:28:11;;;;;;;6.50;1.60;;;;;;;12.41;99.33;99770.50;5081281;28;20024;-78
2022/09/26 08:30:36;;;;;;;5.18;1.65;;;;;;;12.46;99.10;99759.22;5061535;28;20123;-78
2022/09/26 08:33:02;;;;;;;5.65;1.42;;;;;;;12.50;97.75;99771.34;5074046;28;20032;-78
2022/09/26 08:35:31;;;;;;;5.70;1.60;;;;;;;12.53;98.49;99762.31;5060819;28;20029;-77
2022/09/26 08:38:01;;;;;;;4.93;1.20;;;;;;;12.55;98.73;99760.03;5059988;28;20028;-77
2022/09/26 08:40:31;;;;;;;5.18;1.27;;;;;;;12.59;100.00;99755.47;5033350;28;20059;-77
2022/09/26 08:43:03;;;;;;;4.72;1.50;;;;;;;12.60;100.00;99759.88;5043405;28;20036;-77
2022/09/26 08:48:59;;;;;;;4.00;1.55;;;;;;;12.62;100.00;99745.63;5084471;28;20093;-77
2022/09/26 08:51:31;;;;;;;6.10;1.23;;;;;;;12.62;100.00;99748.41;5031782;28;20107;-76
2022/09/26 08:54:04;;;;;;;5.18;1.40;;;;;;;12.61;100.00;99739.22;5052487;28;20123;-77
2022/09/26 08:56:30;;;;;;;;;;;;;;;12.57;100.00;99746.63;5053993;28;20028;-77
2022/09/26 08:58:56;;;;;;;4.82;1.73;;;;;;;12.59;100.00;99735.97;5054068;28;19916;-77
2022/09/26 09:01:29;;;;;;;1.85;1.15;;;;;;;12.58;100.00;99722.38;5043815;28;20110;-77
2022/09/26 09:04:04;;;;;;;3.22;1.40;;;;;;;12.59;100.00;99718.41;5050664;28;20024;-77
2022/09/26 09:06:30;;;;;;;4.72;1.48;;;;;;;12.56;100.00;99722.69;5034015;28;20059;-77
2022/09/26 09:08:56;;;;;;;4.43;1.35;;;;;;;12.54;100.00;99713.84;5058518;28;20046;-77
2022/09/26 09:11:46;;;;;;;5.38;1.27;;;;;;;12.56;100.00;99710.72;5080528;28;20035;-78
2022/09/26 09:14:35;;;;;;;6.45;1.30;;;;;;;12.57;100.00;99702.06;5057383;28;20035;-77
2022/09/26 09:17:03;;;;;;;5.03;1.63;;;;;;;12.56;100.00;99692.03;5046821;28;20035;-77
2022/09/26 09:20:00;;;;;;;6.25;1.75;;;;;;;12.56;100.00;99694.81;5060363;28;20051;-77
2022/09/26 09:22:43;;;;;;;4.00;1.27;;;;;;;12.57;100.00;99690.09;5067741;28;20027;-77
2022/09/26 09:25:17;;;;;;;5.45;1.60;;;;;;;12.56;100.00;99682.88;5068080;28;20020;-76
2022/09/26 09:27:55;;;;;;;4.07;1.30;;;;;;;12.56;100.00;99675.31;5043637;28;20024;-77
2022/09/26 09:30:22;;;;;;;2.63;1.30;;;;;;;12.57;100.00;99665.84;5091263;28;20040;-76
2022/09/26 09:32:57;;;;;;;4.65;1.42;;;;;;;12.60;100.00;99667.97;5039458;28;20097;-77
2022/09/26 09:35:58;;;;;;;4.10;1.40;;;;;;;12.62;100.00;99653.69;5085215;28;20066;-77
2022/09/26 09:38:28;;;;;;;3.75;1.45;;;;;;;12.64;100.00;99641.06;5049091;28;20576;-77
2022/09/26 09:41:05;;;;;;;4.22;1.45;;;;;;;12.66;100.00;99638.78;5017302;28;20020;-76
2022/09/26 09:43:48;;;;;;;3.28;1.38;;;;;;;12.69;100.00;99640.91;5043239;28;20032;-77
2022/09/26 09:46:21;;;;;;;3.60;1.70;;;;;;;12.73;100.00;99633.56;5056418;28;20025;-76
2022/09/26 09:48:47;;;;;;;3.63;1.02;;;;;;;12.77;100.00;99641.25;5033400;28;20091;-77
2022/09/26 09:51:41;;;;;;;3.70;1.30;;;;;;;12.80;100.00;99623.88;5062480;28;20612;-76
2022/09/26 09:54:29;;;;;;;3.38;1.08;;;;;;;12.80;100.00;99618.28;5063455;28;20110;-76
2022/09/26 09:57:27;;;;;;;2.42;1.30;;;;;;;12.81;100.00;99622.72;5097543;28;20040;-76
2022/09/26 10:00:15;;;;;;;4.88;1.50;;;;;;;12.85;100.00;99620.91;5059412;28;20064;-76
2022/09/26 10:03:10;;;;;;;5.88;1.23;;;;;;;12.88;100.00;99597.97;5042220;28;20058;-76
2022/09/26 10:05:41;;;;;;;3.45;1.52;;;;;;;12.89;100.00;99592.03;5046416;28;20031;-76
2022/09/26 10:08:19;;;;;;;3.75;1.45;;;;;;;12.93;100.00;99590.22;5097305;28;20051;-76
2022/09/26 10:11:08;;;;;;;5.55;2.38;;;;;;;12.91;100.00;99580.56;5030445;28;20059;-77
2022/09/26 10:13:33;;;;;;;6.35;2.40;;;;;;;12.94;100.00;99579.91;5063163;28;20555;-76
2022/09/26 10:16:05;;;;;;;8.25;3.83;;;;;;;12.96;100.00;99570.06;5041694;28;20098;-77
2022/09/26 10:18:32;;;;;;;10.50;5.10;;;;;;;12.99;100.00;99565.78;5045137;28;20031;-76
2022/09/26 10:21:05;;;;;;;7.78;4.22;;;;;;;13.01;100.00;99560.72;5059842;28;20071;-76
2022/09/26 10:23:38;;;;;;;7.35;3.45;;;;;;;13.05;100.00;99567.25;5036937;28;20473;-76
2022/09/26 10:26:07;;;;;;;;;;;;;;;13.10;100.00;99558.69;5050569;28;20048;-77
2022/09/26 10:28:44;;;;;;;7.18;2.80;;;;;;;13.13;100.00;99552.44;5060113;28;20352;-76
2022/09/26 10:31:10;;;;;;;4.80;2.20;;;;;;;13.15;100.00;99541.78;5023704;28;20039;-77
2022/09/26 10:33:42;;;;;;;5.15;2.35;;;;;;;13.18;100.00;99532.75;5026424;28;20024;-76
2022/09/26 10:36:19;;;;;;;5.07;2.22;;;;;;;13.23;100.00;99526.16;5042035;28;20490;-76
2022/09/26 10:41:38;;;;;;;5.88;2.00;;;;;;;13.33;100.00;99520.22;5065450;28;20054;-76
2022/09/26 10:44:06;;;;;;;2.80;1.50;;;;;;;13.36;100.00;99516.78;5027424;28;20070;-77
2022/09/26 10:46:32;;;;;;;3.42;1.70;;;;;;;13.40;100.00;99516.94;5043982;28;20027;-77
2022/09/26 10:49:00;;;;;;;3.53;1.30;;;;;;;13.45;100.00;99519.50;5069851;28;20040;-76
2022/09/26 10:51:41;;;;;;;5.18;1.73;;;;;;;13.49;100.00;99514.91;5059898;28;20111;-76
2022/09/26 10:54:18;;;;;;;2.78;1.20;;;;;;;13.52;100.00;99507.84;5033944;28;20473;-76
2022/09/26 10:56:46;;;;;;;3.05;1.30;;;;;;;13.56;100.00;99487.28;5078470;28;20043;-77
2022/09/26 10:59:13;;;;;;;3.20;0.93;;;;;;;13.58;100.00;99489.72;5063958;28;20030;-76
2022/09/26 11:01:41;;;;;;;2.65;1.10;;;;;;;13.63;100.00;99489.53;5055790;28;20042;-76
2022/09/26 11:07:23;;;;;;;2.33;1.05;;;;;;;13.71;100.00;99476.69;5046024;28;20024;-76
2022/09/26 11:09:50;;;;;;;4.10;1.23;;;;;;;13.75;100.00;99472.03;5031989;28;20050;-76
2022/09/26 11:12:28;;;;;;;2.80;1.20;;;;;;;13.79;100.00;99457.09;5024040;28;20032;-76
2022/09/26 11:14:57;;;;;;;2.15;1.00;;;;;;;13.84;100.00;99450.44;5045829;28;20054;-77
2022/09/26 11:17:44;;;;;;;2.72;1.13;;;;;;;13.88;100.00;99442.25;5039657;28;20035;-76
2022/09/26 11:20:43;;;;;;;2.38;1.05;;;;;;;13.92;100.00;99449.56;5059350;28;20568;-76
2022/09/26 11:23:21;;;;;;;2.30;0.98;;;;;;;14.00;100.00;99433.91;5072939;28;20540;-76
2022/09/26 11:25:55;;;;;;;2.85;1.35;;;;;;;14.06;100.00;99449.28;5100960;28;20028;-76
2022/09/26 11:28:30;;;;;;;4.07;1.23;;;;;;;14.08;100.00;99446.97;5068060;28;20115;-76
2022/09/26 11:30:57;;;;;;;2.25;0.90;;;;;;;14.11;100.00;99445.47;5064597;28;20600;-77
2022/09/26 11:33:23;;;;;;;5.75;1.30;;;;;;;14.13;100.00;99443.97;5058547;28;20113;-77
2022/09/26 11:35:50;;;;;;;5.43;1.10;;;;;;;14.15;100.00;99446.38;5023392;28;20028;-76
2022/09/26 11:38:37;;;;;;;2.80;0.93;;;;;;;14.18;100.00;99445.69;5083461;28;20042;-76
2022/09/26 11:41:37;;;;;;;4.63;0.80;;;;;;;14.21;100.00;99429.09;5067673;28;20047;-76
2022/09/26 11:44:21;;;;;;;3.33;0.95;;;;;;;14.22;100.00;99419.53;5072089;28;20046;-77
2022/09/26 11:46:59;;;;;;;4.22;0.90;;;;;;;14.22;100.00;99425.13;5068981;28;20036;-76
2022/09/26 11:49:44;;;;;;;2.60;0.73;;;;;;;14.25;100.00;99418.84;5061538;28;20039;-76
2022/09/26 11:52:31;;;;;;;2.47;1.00;;;;;;;14.28;100.00;99434.91;5058113;28;20031;-76
2022/09/26 11:55:06;;;;;;;3.35;0.80;;;;;;;14.30;100.00;99417.81;5074575;28;20110;-76
2022/09/26 11:58:00;;;;;;;2.55;0.60;;;;;;;14.34;100.00;99418.75;5083807;28;20036;-76
2022/09/26 12:00:47;;;;;;;3.50;0.70;;;;;;;14.38;100.00;99428.09;5074267;28;20086;-76
2022/09/26 12:03:32;;;;;;;3.47;0.93;;;;;;;14.41;100.00;99418.19;5075116;28;20105;-76
2022/09/26 12:06:08;;;;;;;3.65;0.88;;;;;;;14.41;100.00;99410.63;5087529;28;20029;-76
2022/09/26 12:08:48;;;;;;;1.95;0.80;;;;;;;14.41;100.00;99416.22;5046421;28;20031;-76
2022/09/26 12:11:32;;;;;;;2.42;0.70;;;;;;;14.44;100.00;99493.75;5074821;28;20036;-76